createdAt,value
2022-11-29T00:01:15.692Z,98001.03
2022-11-29T00:03:43.340Z,97993.97
2022-11-29T00:06:18.972Z,97997.88
2022-11-29T00:08:48.105Z,97998.09
2022-11-29T00:11:40.751Z,98002.44
2022-11-29T00:14:36.918Z,97999.41
2022-11-29T00:17:48.694Z,97995.44
2022-11-29T00:20:40.411Z,97986.97
2022-11-29T00:23:15.094Z,97992.66
2022-11-29T00:25:41.752Z,97991.00
2022-11-29T00:28:14.600Z,97992.41
2022-11-29T00:31:15.965Z,97992.41
2022-11-29T00:33:48.362Z,97993.72
2022-11-29T00:36:40.370Z,97995.31
2022-11-29T00:39:12.181Z,97988.34
2022-11-29T00:41:42.752Z,97995.16
2022-11-29T00:44:13.901Z,97990.41
2022-11-29T00:46:42.087Z,98002.19
2022-11-29T00:49:08.857Z,97992.22
2022-11-29T00:52:00.239Z,97999.31
2022-11-29T00:54:26.825Z,97993.50
2022-11-29T00:56:59.270Z,97996.50
2022-11-29T00:59:25.903Z,98002.72
2022-11-29T01:01:52.580Z,98000.19
2022-11-29T01:04:19.392Z,98004.19
2022-11-29T01:06:46.016Z,98000.22
2022-11-29T01:09:13.669Z,98004.44
2022-11-29T01:11:40.341Z,98002.78
2022-11-29T01:14:06.903Z,98004.88
2022-11-29T01:16:33.768Z,97999.41
2022-11-29T01:19:00.658Z,98006.34
2022-11-29T01:21:27.497Z,98001.84
2022-11-29T01:23:55.479Z,97995.59
2022-11-29T01:26:29.187Z,98008.38
2022-11-29T01:28:56.852Z,98004.84
2022-11-29T01:31:26.571Z,98012.31
2022-11-29T01:33:55.202Z,98008.34
2022-11-29T01:36:26.230Z,98007.94
2022-11-29T01:38:53.296Z,98007.16
2022-11-29T01:41:25.423Z,98009.38
2022-11-29T01:44:00.227Z,98010.34
2022-11-29T01:46:33.249Z,98006.41
2022-11-29T01:49:11.660Z,98006.88
2022-11-29T01:52:01.747Z,98004.59
2022-11-29T01:54:29.985Z,98014.94
2022-11-29T01:56:57.661Z,98001.22
2022-11-29T01:59:29.809Z,98002.34
2022-11-29T02:02:03.325Z,98006.56
2022-11-29T02:04:34.942Z,98008.13
2022-11-29T02:07:03.291Z,97999.88
2022-11-29T02:09:30.783Z,98005.97
2022-11-29T02:12:31.554Z,98002.84
2022-11-29T02:15:36.758Z,97998.72
2022-11-29T02:18:44.684Z,98009.88
2022-11-29T02:21:32.036Z,98012.34
2022-11-29T02:24:44.510Z,98012.31
2022-11-29T02:27:32.921Z,98006.38
2022-11-29T02:30:35.258Z,98005.41
2022-11-29T02:33:22.972Z,98009.72
2022-11-29T02:36:01.306Z,98003.19
2022-11-29T02:39:15.532Z,98011.84
2022-11-29T02:41:49.019Z,98009.66
2022-11-29T02:44:27.744Z,98007.31
2022-11-29T02:47:07.053Z,98014.19
2022-11-29T02:49:41.846Z,98011.22
2022-11-29T02:52:17.486Z,98012.28
2022-11-29T02:55:03.852Z,98012.19
2022-11-29T02:57:46.019Z,98010.59
2022-11-29T03:00:20.442Z,98014.84
2022-11-29T03:02:56.083Z,98018.88
2022-11-29T03:05:22.630Z,98017.25
2022-11-29T03:08:26.350Z,98013.28
2022-11-29T03:10:58.999Z,98018.72
2022-11-29T03:14:07.078Z,98011.53
2022-11-29T03:16:54.928Z,98023.59
2022-11-29T03:19:21.379Z,98028.06
2022-11-29T03:22:09.803Z,98024.59
2022-11-29T03:24:56.304Z,98029.59
2022-11-29T03:27:44.370Z,98031.78
2022-11-29T03:30:13.828Z,98026.88
2022-11-29T03:32:56.772Z,98033.09
2022-11-29T03:36:04.845Z,98036.66
2022-11-29T03:38:44.365Z,98029.81
2022-11-29T03:41:27.769Z,98027.31
2022-11-29T03:44:07.123Z,98027.66
2022-11-29T03:46:52.509Z,98039.66
2022-11-29T03:49:34.560Z,98032.13
2022-11-29T03:52:01.169Z,98039.91
2022-11-29T03:55:00.619Z,98035.81
2022-11-29T03:57:53.260Z,98038.09
2022-11-29T04:00:20.179Z,98040.88
2022-11-29T04:02:53.347Z,98040.97
2022-11-29T04:05:41.699Z,98040.63
2022-11-29T04:08:31.856Z,98041.25
2022-11-29T04:11:20.339Z,98041.47
2022-11-29T04:14:03.269Z,98039.22
2022-11-29T04:17:07.306Z,98041.75
2022-11-29T04:20:09.384Z,98043.56
2022-11-29T04:23:14.793Z,98047.13
2022-11-29T04:26:18.627Z,98051.38
2022-11-29T04:28:57.424Z,98048.56
2022-11-29T04:31:33.179Z,98050.94
2022-11-29T04:34:21.550Z,98052.34
2022-11-29T04:36:51.201Z,98066.09
2022-11-29T04:39:17.647Z,98068.13
2022-11-29T04:42:32.788Z,98061.00
2022-11-29T04:45:17.976Z,98065.75
2022-11-29T04:47:54.951Z,98069.22
2022-11-29T04:50:43.307Z,98068.94
2022-11-29T04:53:46.512Z,98064.63
2022-11-29T04:56:25.141Z,98067.16
2022-11-29T04:59:16.131Z,98069.59
2022-11-29T05:02:01.099Z,98072.81
2022-11-29T05:04:46.621Z,98070.22
2022-11-29T05:07:24.661Z,98073.34
2022-11-29T05:09:51.348Z,98078.09
2022-11-29T05:12:26.910Z,98076.06
2022-11-29T05:15:27.727Z,98083.38
2022-11-29T05:18:15.548Z,98088.84
2022-11-29T05:20:56.750Z,98082.72
2022-11-29T05:23:51.500Z,98081.50
2022-11-29T05:26:27.238Z,98084.06
2022-11-29T05:29:03.968Z,98085.69
2022-11-29T05:31:55.318Z,98093.53
2022-11-29T05:34:35.146Z,98096.66
2022-11-29T05:37:08.523Z,98087.19
2022-11-29T05:39:41.548Z,98091.06
2022-11-29T05:42:50.649Z,98097.91
2022-11-29T05:45:50.036Z,98104.00
2022-11-29T05:48:31.688Z,98104.63
2022-11-29T05:51:22.648Z,98098.59
2022-11-29T05:54:04.772Z,98101.72
2022-11-29T05:57:05.950Z,98107.56
2022-11-29T05:59:34.387Z,98106.00
2022-11-29T06:02:27.965Z,98107.56
2022-11-29T06:05:00.578Z,98106.09
2022-11-29T06:08:00.882Z,98108.31
2022-11-29T06:10:33.676Z,98117.16
2022-11-29T06:13:22.078Z,98120.47
2022-11-29T06:16:03.979Z,98115.94
2022-11-29T06:18:33.529Z,98118.13
2022-11-29T06:21:06.118Z,98127.50
2022-11-29T06:23:48.459Z,98117.94
2022-11-29T06:26:29.195Z,98129.50
2022-11-29T06:29:33.221Z,98135.66
2022-11-29T06:32:22.346Z,98137.13
2022-11-29T06:35:09.364Z,98143.28
2022-11-29T06:37:39.633Z,98145.28
2022-11-29T06:40:10.169Z,98141.19
2022-11-29T06:42:36.732Z,98148.94
2022-11-29T06:45:05.076Z,98148.38
2022-11-29T06:48:00.462Z,98147.06
2022-11-29T06:50:46.107Z,98146.50
2022-11-29T06:53:21.717Z,98147.97
2022-11-29T06:56:18.137Z,98148.19
2022-11-29T06:59:03.177Z,98163.00
2022-11-29T07:01:45.670Z,98166.31
2022-11-29T07:04:34.242Z,98163.38
2022-11-29T07:07:01.648Z,98165.19
2022-11-29T07:09:34.460Z,98170.38
2022-11-29T07:12:01.658Z,98173.16
2022-11-29T07:14:28.534Z,98173.28
2022-11-29T07:17:21.331Z,98177.00
2022-11-29T07:20:01.538Z,98174.63
2022-11-29T07:22:31.105Z,98182.59
2022-11-29T07:25:15.648Z,98188.09
2022-11-29T07:27:49.495Z,98183.47
2022-11-29T07:30:20.412Z,98190.22
2022-11-29T07:33:05.650Z,98193.34
2022-11-29T07:35:44.349Z,98194.06
2022-11-29T07:38:25.916Z,98189.25
2022-11-29T07:41:18.748Z,98193.00
2022-11-29T07:43:51.667Z,98192.41
2022-11-29T07:46:18.424Z,98193.34
2022-11-29T07:49:09.388Z,98193.91
2022-11-29T07:51:36.214Z,98192.53
2022-11-29T07:54:03.085Z,98196.63
2022-11-29T07:56:41.685Z,98199.97
2022-11-29T07:59:12.771Z,98209.97
2022-11-29T08:01:39.876Z,98203.16
2022-11-29T08:04:08.084Z,98208.50
2022-11-29T08:06:40.584Z,98204.03
2022-11-29T08:09:07.585Z,98202.91
2022-11-29T08:11:34.291Z,98207.03
2022-11-29T08:14:01.755Z,98205.25
2022-11-29T08:16:28.447Z,98206.72
2022-11-29T08:18:55.067Z,98209.41
2022-11-29T08:21:21.693Z,98208.47
2022-11-29T08:23:49.604Z,98210.50
2022-11-29T08:26:17.411Z,98211.75
2022-11-29T08:28:44.627Z,98213.19
2022-11-29T08:31:13.059Z,98217.88
2022-11-29T08:33:42.584Z,98222.69
2022-11-29T08:36:11.703Z,98226.00
2022-11-29T08:38:38.247Z,98218.09
2022-11-29T08:41:06.474Z,98225.47
2022-11-29T08:43:33.368Z,98227.03
2022-11-29T08:46:00.060Z,98227.94
2022-11-29T08:48:26.965Z,98235.19
2022-11-29T08:50:54.811Z,98228.94
2022-11-29T08:53:41.487Z,98230.41
2022-11-29T08:56:53.321Z,98237.97
2022-11-29T08:59:00.643Z,98238.06
2022-11-29T09:01:27.378Z,98230.63
2022-11-29T09:03:59.809Z,98235.00
2022-11-29T09:06:41.274Z,98240.72
2022-11-29T09:09:07.987Z,98241.84
2022-11-29T09:11:36.265Z,98244.38
2022-11-29T09:14:04.152Z,98245.91
2022-11-29T09:16:33.619Z,98242.13
2022-11-29T09:19:00.430Z,98251.78
2022-11-29T09:21:27.948Z,98251.63
2022-11-29T09:23:59.039Z,98251.63
2022-11-29T09:26:28.026Z,98249.41
2022-11-29T09:28:57.855Z,98252.59
2022-11-29T09:31:24.590Z,98256.00
2022-11-29T09:33:51.189Z,98258.22
2022-11-29T09:36:17.745Z,98262.09
2022-11-29T09:38:44.760Z,98256.03
2022-11-29T09:41:25.190Z,98266.25
2022-11-29T09:43:54.803Z,98263.88
2022-11-29T09:46:21.697Z,98274.31
2022-11-29T09:49:28.649Z,98272.50
2022-11-29T09:51:58.266Z,98271.78
2022-11-29T09:54:31.332Z,98271.03
2022-11-29T09:56:58.194Z,98274.50
2022-11-29T09:59:34.306Z,98272.13
2022-11-29T10:02:15.941Z,98273.97
2022-11-29T10:04:56.615Z,98271.28
2022-11-29T10:07:40.807Z,98278.41
2022-11-29T10:10:15.164Z,98281.50
2022-11-29T10:12:49.088Z,98278.03
2022-11-29T10:15:22.334Z,98278.81
2022-11-29T10:18:01.025Z,98288.84
2022-11-29T10:20:33.377Z,98288.44
2022-11-29T10:23:11.400Z,98283.25
2022-11-29T10:25:44.342Z,98284.22
2022-11-29T10:28:15.164Z,98282.19
2022-11-29T10:30:43.172Z,98279.03
2022-11-29T10:33:16.754Z,98280.66
2022-11-29T10:35:44.123Z,98276.13
2022-11-29T10:38:30.310Z,98274.91
2022-11-29T10:41:04.984Z,98277.63
2022-11-29T10:43:31.840Z,98275.72
2022-11-29T10:45:58.751Z,98276.06
2022-11-29T10:48:28.807Z,98284.28
2022-11-29T10:50:55.288Z,98274.31
2022-11-29T10:53:36.079Z,98281.41
2022-11-29T10:56:17.229Z,98281.53
2022-11-29T10:59:06.115Z,98278.22
2022-11-29T11:01:43.502Z,98281.16
2022-11-29T11:04:30.402Z,98282.91
2022-11-29T11:07:01.134Z,98275.75
2022-11-29T11:09:50.905Z,98282.47
2022-11-29T11:12:23.581Z,98283.16
2022-11-29T11:14:51.423Z,98282.38
2022-11-29T11:17:25.921Z,98278.81
2022-11-29T11:19:58.664Z,98282.06
2022-11-29T11:22:25.852Z,98271.72
2022-11-29T11:24:58.844Z,98276.13
2022-11-29T11:27:37.389Z,98274.41
2022-11-29T11:30:06.483Z,98279.19
2022-11-29T11:32:33.019Z,98279.81
2022-11-29T11:35:01.774Z,98282.91
2022-11-29T11:37:32.796Z,98280.41
2022-11-29T11:40:18.356Z,98281.06
2022-11-29T11:42:45.045Z,98282.34
2022-11-29T11:45:11.517Z,98286.97
2022-11-29T11:47:43.088Z,98291.06
2022-11-29T11:50:24.965Z,98291.34
2022-11-29T11:52:53.851Z,98287.03
2022-11-29T11:55:39.682Z,98294.75
2022-11-29T11:58:16.314Z,98291.31
2022-11-29T12:01:04.085Z,98296.78
2022-11-29T12:03:34.980Z,98293.88
2022-11-29T12:06:30.038Z,98295.22
2022-11-29T12:09:35.243Z,98296.66
2022-11-29T12:12:11.621Z,98297.34
2022-11-29T12:15:01.679Z,98303.28
2022-11-29T12:17:37.266Z,98311.00
2022-11-29T12:20:19.123Z,98300.53
2022-11-29T12:22:50.731Z,98311.88
2022-11-29T12:25:27.847Z,98309.03
2022-11-29T12:27:54.429Z,98313.88
2022-11-29T12:30:21.096Z,98308.69
2022-11-29T12:32:48.413Z,98310.38
2022-11-29T12:35:23.635Z,98316.38
2022-11-29T12:37:56.486Z,98328.91
2022-11-29T12:40:44.571Z,98325.78
2022-11-29T12:43:26.529Z,98322.50
2022-11-29T12:46:09.150Z,98321.00
2022-11-29T12:48:47.810Z,98322.47
2022-11-29T12:51:41.983Z,98324.88
2022-11-29T12:54:36.181Z,98322.84
2022-11-29T12:57:15.642Z,98322.75
2022-11-29T12:59:57.488Z,98319.13
2022-11-29T13:03:01.598Z,98325.41
2022-11-29T13:05:31.182Z,98327.69
2022-11-29T13:08:22.005Z,98324.75
2022-11-29T13:11:20.986Z,98327.28
2022-11-29T13:14:34.541Z,98337.13
2022-11-29T13:17:04.051Z,98331.50
2022-11-29T13:19:33.521Z,98335.94
2022-11-29T13:22:15.704Z,98339.13
2022-11-29T13:25:03.958Z,98332.44
2022-11-29T13:27:34.735Z,98333.75
2022-11-29T13:30:01.934Z,98331.69
2022-11-29T13:32:34.524Z,98338.59
2022-11-29T13:35:11.646Z,98339.13
2022-11-29T13:37:45.078Z,98336.09
2022-11-29T13:40:37.773Z,98343.53
2022-11-29T13:43:24.765Z,98342.78
2022-11-29T13:46:10.319Z,98341.84
2022-11-29T13:48:47.840Z,98335.69
2022-11-29T13:51:31.181Z,98342.88
2022-11-29T13:54:01.000Z,98344.34
2022-11-29T13:56:36.138Z,98347.66
2022-11-29T13:59:08.437Z,98352.28
2022-11-29T14:01:54.034Z,98350.22
2022-11-29T14:04:28.007Z,98351.91
2022-11-29T14:07:08.266Z,98361.69
2022-11-29T14:10:05.071Z,98358.31
2022-11-29T14:12:51.061Z,98354.91
2022-11-29T14:15:28.730Z,98361.34
2022-11-29T14:17:59.622Z,98360.06
2022-11-29T14:20:28.321Z,98364.66
2022-11-29T14:23:04.177Z,98362.41
2022-11-29T14:25:51.123Z,98362.81
2022-11-29T14:28:21.579Z,98370.81
2022-11-29T14:30:52.932Z,98361.72
2022-11-29T14:33:31.636Z,98367.44
2022-11-29T14:36:20.167Z,98365.63
2022-11-29T14:39:01.285Z,98364.69
2022-11-29T14:42:06.198Z,98372.03
2022-11-29T14:44:34.440Z,98374.25
2022-11-29T14:47:07.261Z,98372.38
2022-11-29T14:49:43.021Z,98372.41
2022-11-29T14:52:15.735Z,98376.16
2022-11-29T14:55:05.878Z,98372.63
2022-11-29T14:57:47.906Z,98376.53
2022-11-29T15:00:16.103Z,98383.53
2022-11-29T15:03:04.041Z,98383.19
2022-11-29T15:05:50.921Z,98389.13
2022-11-29T15:08:26.707Z,98386.31
2022-11-29T15:10:57.169Z,98396.31
2022-11-29T15:13:27.973Z,98389.13
2022-11-29T15:16:16.003Z,98396.19
2022-11-29T15:19:06.024Z,98394.66
2022-11-29T15:21:50.860Z,98394.66
2022-11-29T15:24:18.008Z,98393.75
2022-11-29T15:27:08.288Z,98392.78
2022-11-29T15:29:34.912Z,98398.00
2022-11-29T15:32:05.605Z,98392.84
2022-11-29T15:34:37.458Z,98399.53
2022-11-29T15:37:04.204Z,98401.72
2022-11-29T15:39:35.742Z,98405.97
2022-11-29T15:42:14.398Z,98408.03
2022-11-29T15:44:46.262Z,98415.06
2022-11-29T15:47:24.496Z,98417.06
2022-11-29T15:49:52.611Z,98413.19
2022-11-29T15:52:30.063Z,98418.56
2022-11-29T15:55:02.715Z,98425.78
2022-11-29T15:57:31.656Z,98424.28
2022-11-29T16:00:01.779Z,98432.44
2022-11-29T16:02:31.044Z,98422.81
2022-11-29T16:05:14.586Z,98432.81
2022-11-29T16:07:41.756Z,98428.34
2022-11-29T16:10:16.446Z,98433.34
2022-11-29T16:12:56.120Z,98441.31
2022-11-29T16:15:30.627Z,98429.47
2022-11-29T16:18:13.822Z,98441.25
2022-11-29T16:20:40.778Z,98436.66
2022-11-29T16:23:13.002Z,98442.94
2022-11-29T16:25:59.659Z,98442.41
2022-11-29T16:28:33.816Z,98445.72
2022-11-29T16:31:00.760Z,98446.25
2022-11-29T16:33:27.497Z,98454.44
2022-11-29T16:36:11.433Z,98456.22
2022-11-29T16:38:44.124Z,98454.81
2022-11-29T16:41:37.833Z,98459.81
2022-11-29T16:44:06.399Z,98455.19
2022-11-29T16:46:38.756Z,98455.56
2022-11-29T16:49:30.358Z,98454.97
2022-11-29T16:51:57.622Z,98455.16
2022-11-29T16:54:27.370Z,98464.22
2022-11-29T16:56:56.007Z,98462.75
2022-11-29T16:59:27.305Z,98459.78
2022-11-29T17:01:55.464Z,98463.88
2022-11-29T17:04:23.734Z,98464.22
2022-11-29T17:06:52.820Z,98459.22
2022-11-29T17:09:26.000Z,98459.97
2022-11-29T17:11:53.210Z,98466.09
2022-11-29T17:14:19.863Z,98459.81
2022-11-29T17:16:49.304Z,98467.94
2022-11-29T17:19:16.097Z,98471.25
2022-11-29T17:21:42.651Z,98477.94
2022-11-29T17:24:14.199Z,98472.94
2022-11-29T17:26:41.412Z,98471.81
2022-11-29T17:29:13.197Z,98475.88
2022-11-29T17:31:40.030Z,98476.81
2022-11-29T17:34:06.729Z,98474.59
2022-11-29T17:36:33.370Z,98479.22
2022-11-29T17:39:00.537Z,98478.28
2022-11-29T17:41:28.203Z,98479.59
2022-11-29T17:43:55.811Z,98484.59
2022-11-29T17:46:30.831Z,98484.41
2022-11-29T17:49:01.967Z,98491.44
2022-11-29T17:51:51.227Z,98489.03
2022-11-29T17:54:15.445Z,98493.28
2022-11-29T17:56:42.005Z,98485.50
2022-11-29T17:59:08.549Z,98486.81
2022-11-29T18:01:36.079Z,98489.94
2022-11-29T18:04:05.157Z,98488.09
2022-11-29T18:06:39.460Z,98495.84
2022-11-29T18:09:07.879Z,98492.34
2022-11-29T18:11:45.272Z,98498.25
2022-11-29T18:14:16.564Z,98501.22
2022-11-29T18:16:45.178Z,98498.81
2022-11-29T18:19:14.074Z,98497.91
2022-11-29T18:21:40.731Z,98499.75
2022-11-29T18:24:08.847Z,98500.13
2022-11-29T18:26:36.506Z,98503.81
2022-11-29T18:29:04.130Z,98509.75
2022-11-29T18:31:33.172Z,98507.16
2022-11-29T18:34:01.711Z,98508.94
2022-11-29T18:36:30.978Z,98508.16
2022-11-29T18:39:07.199Z,98509.31
2022-11-29T18:41:34.100Z,98522.66
2022-11-29T18:44:03.348Z,98524.47
2022-11-29T18:46:32.402Z,98531.13
2022-11-29T18:49:01.181Z,98533.59
2022-11-29T18:51:29.275Z,98533.78
2022-11-29T18:53:55.890Z,98535.25
2022-11-29T18:56:23.764Z,98534.69
2022-11-29T18:58:59.199Z,98527.69
2022-11-29T19:01:28.080Z,98529.72
2022-11-29T19:03:56.665Z,98524.91
2022-11-29T19:06:39.438Z,98528.78
2022-11-29T19:09:11.108Z,98527.97
2022-11-29T19:11:37.664Z,98528.91
2022-11-29T19:14:05.704Z,98534.50
2022-11-29T19:16:32.691Z,98528.16
2022-11-29T19:19:00.347Z,98530.59
2022-11-29T19:21:28.874Z,98531.50
2022-11-29T19:24:00.978Z,98522.22
2022-11-29T19:26:30.133Z,98525.16
2022-11-29T19:28:56.986Z,98521.25
2022-11-29T19:31:25.126Z,98517.09
2022-11-29T19:33:52.685Z,98515.34
2022-11-29T19:36:24.819Z,98517.56
2022-11-29T19:38:54.195Z,98514.06
2022-11-29T19:41:22.125Z,98511.06
2022-11-29T19:43:49.232Z,98526.94
2022-11-29T19:46:21.184Z,98526.81
2022-11-29T19:48:48.275Z,98527.91
2022-11-29T19:51:18.674Z,98533.97
2022-11-29T19:53:46.162Z,98536.22
2022-11-29T19:56:15.309Z,98529.22
2022-11-29T19:58:42.677Z,98536.47
2022-11-29T20:01:24.907Z,98542.03
2022-11-29T20:03:52.270Z,98539.25
2022-11-29T20:06:18.995Z,98544.06
2022-11-29T20:08:45.551Z,98546.19
2022-11-29T20:11:13.387Z,98562.00
2022-11-29T20:13:41.698Z,98557.34
2022-11-29T20:16:10.631Z,98557.91
2022-11-29T20:18:39.340Z,98551.50
2022-11-29T20:21:14.072Z,98548.72
2022-11-29T20:23:41.471Z,98545.56
2022-11-29T20:26:13.523Z,98547.94
2022-11-29T20:28:40.027Z,98552.00
2022-11-29T20:31:08.160Z,98556.19
2022-11-29T20:33:34.758Z,98559.72
2022-11-29T20:36:40.331Z,98559.53
2022-11-29T20:39:34.992Z,98559.19
2022-11-29T20:42:30.675Z,98551.63
2022-11-29T20:44:57.502Z,98544.38
2022-11-29T20:47:28.686Z,98551.59
2022-11-29T20:49:56.104Z,98554.38
2022-11-29T20:52:45.607Z,98554.22
2022-11-29T20:55:12.189Z,98551.94
2022-11-29T20:57:38.830Z,98555.47
2022-11-29T21:00:13.799Z,98566.56
2022-11-29T21:02:40.850Z,98563.69
2022-11-29T21:05:08.531Z,98559.72
2022-11-29T21:07:36.026Z,98564.41
2022-11-29T21:10:02.878Z,98563.25
2022-11-29T21:12:30.175Z,98560.53
2022-11-29T21:14:57.394Z,98571.34
2022-11-29T21:17:28.807Z,98575.38
2022-11-29T21:20:00.271Z,98571.91
2022-11-29T21:22:52.987Z,98568.47
2022-11-29T21:25:48.826Z,98573.44
2022-11-29T21:28:16.251Z,98568.66
2022-11-29T21:30:43.669Z,98569.53
2022-11-29T21:33:11.293Z,98561.22
2022-11-29T21:35:39.842Z,98564.59
2022-11-29T21:38:12.078Z,98562.31
2022-11-29T21:40:38.675Z,98563.97
2022-11-29T21:43:05.305Z,98565.03
2022-11-29T21:45:31.873Z,98563.41
2022-11-29T21:47:59.997Z,98566.31
2022-11-29T21:50:26.446Z,98561.69
2022-11-29T21:52:53.096Z,98563.53
2022-11-29T21:55:20.153Z,98564.81
2022-11-29T21:57:46.782Z,98566.50
2022-11-29T22:00:14.026Z,98568.50
2022-11-29T22:02:40.988Z,98571.31
2022-11-29T22:05:09.479Z,98571.41
2022-11-29T22:07:36.122Z,98573.72
2022-11-29T22:10:10.010Z,98575.91
2022-11-29T22:12:45.906Z,98573.78
2022-11-29T22:15:24.194Z,98566.44
2022-11-29T22:17:53.212Z,98580.31
2022-11-29T22:20:20.154Z,98577.47
2022-11-29T22:22:48.492Z,98581.97
2022-11-29T22:25:15.653Z,98583.03
2022-11-29T22:27:42.225Z,98584.03
2022-11-29T22:30:09.887Z,98583.56
2022-11-29T22:32:36.426Z,98588.22
2022-11-29T22:35:03.034Z,98585.25
2022-11-29T22:37:29.597Z,98582.31
2022-11-29T22:39:56.192Z,98584.56
2022-11-29T22:42:25.410Z,98584.94
2022-11-29T22:44:52.209Z,98579.00
2022-11-29T22:47:18.838Z,98576.78
2022-11-29T22:49:45.359Z,98575.47
2022-11-29T22:52:11.942Z,98581.53
2022-11-29T22:54:38.584Z,98580.84
2022-11-29T22:57:05.265Z,98579.06
2022-11-29T22:59:32.173Z,98585.84
2022-11-29T23:01:58.792Z,98583.47
2022-11-29T23:04:25.431Z,98577.56
2022-11-29T23:06:52.020Z,98582.19
2022-11-29T23:09:21.963Z,98584.34
2022-11-29T23:11:53.904Z,98582.75
2022-11-29T23:14:22.020Z,98579.66
2022-11-29T23:16:48.694Z,98587.78
2022-11-29T23:19:16.061Z,98586.47
2022-11-29T23:21:45.476Z,98586.09
2022-11-29T23:24:12.862Z,98581.97
2022-11-29T23:26:41.528Z,98589.19
2022-11-29T23:29:12.048Z,98587.00
2022-11-29T23:31:39.378Z,98595.38
2022-11-29T23:34:06.039Z,98580.22
2022-11-29T23:36:33.034Z,98579.84
2022-11-29T23:39:00.384Z,98583.13
2022-11-29T23:41:27.041Z,98579.66
2022-11-29T23:43:53.747Z,98575.91
2022-11-29T23:46:22.598Z,98576.69
2022-11-29T23:48:49.440Z,98576.19
2022-11-29T23:51:16.766Z,98574.06
2022-11-29T23:53:43.870Z,98577.03
2022-11-29T23:56:15.285Z,98575.97
2022-11-29T23:58:42.710Z,98580.22
